createdAt,value
2022-09-22T00:01:37.558Z,1.73
2022-09-22T00:04:10.448Z,1.80
2022-09-22T00:06:43.462Z,2.90
2022-09-22T00:09:14.951Z,2.10
2022-09-22T00:11:45.949Z,1.60
2022-09-22T00:14:17.751Z,1.60
2022-09-22T00:16:49.056Z,5.13
2022-09-22T00:19:20.583Z,1.73
2022-09-22T00:21:51.060Z,1.83
2022-09-22T00:24:22.603Z,3.17
2022-09-22T00:26:52.126Z,4.47
2022-09-22T00:29:20.951Z,1.90
2022-09-22T00:31:49.231Z,1.80
2022-09-22T00:34:20.539Z,2.63
2022-09-22T00:36:51.352Z,2.63
2022-09-22T00:39:20.989Z,1.67
2022-09-22T00:41:52.378Z,1.80
2022-09-22T00:44:38.438Z,1.63
2022-09-22T00:47:32.037Z,1.80
2022-09-22T00:50:08.434Z,1.63
2022-09-22T00:52:44.855Z,1.63
2022-09-22T00:55:17.485Z,1.47
2022-09-22T00:57:47.537Z,1.93
2022-09-22T01:00:17.275Z,3.17
2022-09-22T01:02:50.315Z,1.33
2022-09-22T01:05:19.996Z,1.70
2022-09-22T01:07:50.104Z,3.50
2022-09-22T01:10:18.979Z,1.57
2022-09-22T01:12:59.346Z,1.60
2022-09-22T01:15:34.854Z,1.53
2022-09-22T01:18:15.974Z,1.60
2022-09-22T01:21:20.431Z,1.40
2022-09-22T01:24:29.181Z,1.27
2022-09-22T01:27:49.929Z,1.33
2022-09-22T01:30:27.275Z,1.83
2022-09-22T01:33:11.922Z,2.10
2022-09-22T01:35:55.325Z,1.60
2022-09-22T01:38:31.696Z,1.50
2022-09-22T01:41:05.087Z,1.77
2022-09-22T01:43:42.965Z,2.83
2022-09-22T01:46:18.128Z,2.07
2022-09-22T01:48:50.932Z,2.17
2022-09-22T01:51:27.176Z,3.07
2022-09-22T01:54:01.354Z,1.80
2022-09-22T01:56:33.126Z,2.30
2022-09-22T01:59:06.335Z,2.00
2022-09-22T02:01:42.449Z,1.40
2022-09-22T02:04:18.202Z,1.63
2022-09-22T02:06:53.927Z,2.37
2022-09-22T02:09:25.822Z,1.57
2022-09-22T02:11:54.249Z,1.73
2022-09-22T02:14:22.626Z,1.77
2022-09-22T02:16:52.399Z,2.50
2022-09-22T02:19:24.691Z,1.50
2022-09-22T02:21:53.154Z,1.40
2022-09-22T02:24:30.408Z,1.63
2022-09-22T02:27:01.067Z,2.77
2022-09-22T02:29:32.814Z,1.53
2022-09-22T02:32:07.857Z,1.63
2022-09-22T02:34:36.325Z,4.03
2022-09-22T02:37:15.895Z,2.00
2022-09-22T02:39:55.861Z,2.77
2022-09-22T02:42:30.525Z,2.67
2022-09-22T02:45:06.709Z,1.50
2022-09-22T02:47:41.230Z,1.60
2022-09-22T02:50:12.293Z,2.20
2022-09-22T02:52:41.808Z,1.50
2022-09-22T02:55:11.900Z,1.17
2022-09-22T02:57:40.171Z,2.17
2022-09-22T03:00:09.909Z,4.03
2022-09-22T03:02:39.661Z,2.70
2022-09-22T03:05:08.945Z,1.80
2022-09-22T03:07:37.243Z,1.97
2022-09-22T03:10:08.016Z,2.70
2022-09-22T03:12:36.246Z,3.20
2022-09-22T03:15:05.066Z,1.57
2022-09-22T03:17:34.232Z,1.60
2022-09-22T03:20:04.315Z,1.77
2022-09-22T03:22:32.562Z,1.73
2022-09-22T03:25:00.783Z,1.70
2022-09-22T03:27:29.127Z,1.97
2022-09-22T03:29:57.359Z,1.70
2022-09-22T03:32:25.631Z,1.67
2022-09-22T03:34:53.866Z,1.53
2022-09-22T03:37:23.755Z,3.90
2022-09-22T03:39:52.155Z,1.77
2022-09-22T03:42:20.465Z,3.00
2022-09-22T03:44:48.684Z,2.80
2022-09-22T03:47:16.958Z,3.97
2022-09-22T03:49:45.145Z,2.80
2022-09-22T03:52:13.404Z,3.23
2022-09-22T03:54:43.007Z,5.57
2022-09-22T03:57:11.258Z,2.80
2022-09-22T03:59:39.469Z,2.70
2022-09-22T04:02:07.754Z,3.57
2022-09-22T04:04:36.024Z,3.07
2022-09-22T04:07:07.391Z,2.30
2022-09-22T04:09:36.101Z,2.07
2022-09-22T04:12:06.573Z,4.80
2022-09-22T04:14:34.798Z,3.57
2022-09-22T04:17:05.705Z,3.23
2022-09-22T04:19:35.746Z,3.27
2022-09-22T04:22:04.527Z,2.43
2022-09-22T04:24:33.115Z,4.07
2022-09-22T04:27:18.994Z,2.70
2022-09-22T04:29:49.656Z,3.10
2022-09-22T04:32:18.486Z,3.17
2022-09-22T04:34:47.824Z,3.83
2022-09-22T04:37:16.364Z,2.77
2022-09-22T04:39:44.611Z,2.27
2022-09-22T04:42:12.837Z,2.60
2022-09-22T04:44:41.060Z,4.33
2022-09-22T04:47:10.635Z,3.10
2022-09-22T04:49:38.913Z,4.67
2022-09-22T04:52:07.327Z,3.80
2022-09-22T04:54:35.538Z,4.53
2022-09-22T04:57:04.030Z,4.23
2022-09-22T04:59:32.222Z,7.20
2022-09-22T05:02:00.488Z,3.40
2022-09-22T05:04:30.109Z,3.23
2022-09-22T05:06:58.572Z,3.40
2022-09-22T05:09:26.797Z,4.27
2022-09-22T05:12:00.967Z,4.20
2022-09-22T05:14:29.646Z,4.60
2022-09-22T05:16:57.962Z,4.80
2022-09-22T05:19:26.221Z,5.47
2022-09-22T05:21:55.873Z,6.20
2022-09-22T05:24:24.065Z,23.80
2022-09-22T05:26:52.321Z,9.67
2022-09-22T05:29:23.488Z,29.33
2022-09-22T05:31:54.068Z,22.43
2022-09-22T05:34:22.301Z,17.83
2022-09-22T05:36:50.530Z,27.23
2022-09-22T05:39:21.746Z,23.17
2022-09-22T05:41:50.095Z,16.37
2022-09-22T05:44:18.474Z,22.57
2022-09-22T05:46:46.796Z,28.50
2022-09-22T05:49:15.161Z,39.60
2022-09-22T05:51:43.685Z,26.53
2022-09-22T05:54:12.405Z,76.43
2022-09-22T05:56:41.990Z,72.87
2022-09-22T05:59:10.230Z,43.47
2022-09-22T06:01:39.418Z,42.57
2022-09-22T06:04:07.607Z,40.83
2022-09-22T06:06:35.851Z,33.60
2022-09-22T06:09:04.216Z,41.80
2022-09-22T06:11:32.432Z,34.70
2022-09-22T06:14:02.022Z,64.57
2022-09-22T06:16:33.107Z,34.17
2022-09-22T06:19:01.379Z,15.50
2022-09-22T06:21:29.636Z,21.07
2022-09-22T06:23:58.113Z,19.27
2022-09-22T06:26:26.331Z,6.67
2022-09-22T06:28:54.650Z,6.70
2022-09-22T06:31:24.331Z,5.47
2022-09-22T06:33:53.187Z,7.10
2022-09-22T06:36:31.382Z,8.93
2022-09-22T06:38:59.811Z,22.43
2022-09-22T06:41:29.090Z,11.27
2022-09-22T06:43:57.332Z,15.00
2022-09-22T06:46:28.749Z,9.30
2022-09-22T06:48:57.697Z,12.47
2022-09-22T06:51:27.064Z,8.73
2022-09-22T06:53:55.927Z,9.80
2022-09-22T06:56:25.513Z,12.10
2022-09-22T06:59:09.548Z,8.83
2022-09-22T07:01:41.297Z,24.03
2022-09-22T07:04:10.448Z,23.20
2022-09-22T07:06:40.678Z,8.43
2022-09-22T07:09:09.275Z,14.53
2022-09-22T07:11:40.255Z,9.23
2022-09-22T07:14:10.266Z,10.27
2022-09-22T07:16:40.920Z,17.00
2022-09-22T07:19:09.345Z,6.83
2022-09-22T07:21:38.186Z,7.20
2022-09-22T07:24:08.719Z,5.67
2022-09-22T07:26:39.843Z,6.13
2022-09-22T07:29:11.580Z,10.33
2022-09-22T07:31:43.330Z,4.33
2022-09-22T07:34:12.769Z,5.03
2022-09-22T07:36:41.729Z,4.60
2022-09-22T07:39:12.164Z,5.97
2022-09-22T07:41:43.635Z,4.37
2022-09-22T07:44:31.683Z,4.77
2022-09-22T07:47:02.642Z,4.00
2022-09-22T07:49:31.178Z,3.70
2022-09-22T07:51:59.498Z,4.57
2022-09-22T07:54:28.570Z,4.47
2022-09-22T07:56:59.298Z,4.50
2022-09-22T07:59:28.419Z,3.97
2022-09-22T08:01:56.758Z,4.07
2022-09-22T08:04:26.633Z,4.47
2022-09-22T08:06:56.345Z,4.13
2022-09-22T08:09:26.398Z,4.60
2022-09-22T08:11:55.120Z,7.97
2022-09-22T08:14:24.358Z,5.07
2022-09-22T08:16:54.200Z,3.90
2022-09-22T08:19:25.470Z,4.10
2022-09-22T08:21:55.052Z,4.33
2022-09-22T08:24:24.219Z,5.53
2022-09-22T08:26:56.102Z,3.83
2022-09-22T08:29:25.453Z,4.10
2022-09-22T08:31:54.283Z,4.27
2022-09-22T08:34:23.080Z,3.87
2022-09-22T08:36:52.695Z,3.93
2022-09-22T08:39:21.017Z,4.33
2022-09-22T08:42:07.295Z,5.87
2022-09-22T08:44:42.300Z,5.20
2022-09-22T08:47:39.163Z,4.73
2022-09-22T08:50:41.790Z,4.20
2022-09-22T08:53:16.767Z,5.93
2022-09-22T08:55:49.305Z,4.30
2022-09-22T08:58:37.256Z,4.40
2022-09-22T09:01:25.924Z,5.23
2022-09-22T09:04:11.247Z,3.70
2022-09-22T09:06:48.562Z,3.77
2022-09-22T09:09:40.491Z,3.50
2022-09-22T09:12:27.852Z,2.50
2022-09-22T09:15:29.660Z,2.90
2022-09-22T09:18:03.263Z,2.73
2022-09-22T09:20:38.904Z,3.73
2022-09-22T09:23:17.265Z,3.70
2022-09-22T09:25:50.572Z,3.10
2022-09-22T09:28:27.639Z,3.17
2022-09-22T09:31:07.958Z,3.07
2022-09-22T09:33:44.856Z,2.57
2022-09-22T09:36:18.412Z,2.60
2022-09-22T09:38:50.923Z,2.77
2022-09-22T09:41:23.896Z,2.57
2022-09-22T09:43:55.172Z,3.27
2022-09-22T09:46:40.803Z,3.00
2022-09-22T09:49:14.458Z,2.20
2022-09-22T09:51:46.386Z,2.17
2022-09-22T09:54:17.578Z,2.80
2022-09-22T09:57:12.506Z,2.50
2022-09-22T10:00:00.921Z,2.67
2022-09-22T10:02:31.634Z,3.50
2022-09-22T10:05:02.662Z,2.97
2022-09-22T10:07:32.865Z,3.03
2022-09-22T10:10:33.043Z,2.43
2022-09-22T10:13:26.031Z,2.90
2022-09-22T10:16:23.209Z,2.83
2022-09-22T10:18:53.675Z,2.30
2022-09-22T10:21:24.268Z,2.73
2022-09-22T10:23:54.535Z,2.63
2022-09-22T10:26:26.591Z,3.77
2022-09-22T10:29:18.213Z,2.20
2022-09-22T10:32:13.589Z,4.00
2022-09-22T10:37:22.914Z,3.10
2022-09-22T10:39:53.033Z,3.67
2022-09-22T10:42:32.635Z,3.03
2022-09-22T10:45:07.496Z,2.30
2022-09-22T10:47:58.049Z,4.33
2022-09-22T10:50:55.863Z,1.93
2022-09-22T10:54:06.650Z,2.40
2022-09-22T10:56:40.439Z,2.50
2022-09-22T10:59:42.960Z,2.50
2022-09-22T11:02:46.073Z,3.63
2022-09-22T11:05:52.073Z,2.30
2022-09-22T11:08:39.504Z,2.13
2022-09-22T11:11:37.264Z,2.20
2022-09-22T11:14:21.284Z,2.53
2022-09-22T11:17:12.301Z,2.13
2022-09-22T11:20:14.093Z,2.07
2022-09-22T11:23:02.345Z,2.10
2022-09-22T11:25:50.622Z,3.17
2022-09-22T11:28:42.466Z,1.87
2022-09-22T11:31:16.064Z,3.47
2022-09-22T11:34:14.264Z,4.27
2022-09-22T11:36:56.233Z,2.70
2022-09-22T11:39:40.982Z,1.63
2022-09-22T11:42:19.263Z,2.60
2022-09-22T11:45:02.486Z,1.80
2022-09-22T11:47:49.572Z,4.23
2022-09-22T11:50:57.426Z,1.63
2022-09-22T11:53:51.845Z,1.60
2022-09-22T11:56:42.898Z,3.50
2022-09-22T11:59:39.058Z,1.63
2022-09-22T12:02:19.838Z,1.27
2022-09-22T12:04:55.075Z,1.40
2022-09-22T12:07:29.323Z,1.47
2022-09-22T12:10:02.885Z,2.60
2022-09-22T12:12:33.485Z,1.77
2022-09-22T12:15:10.370Z,1.23
2022-09-22T12:17:47.098Z,2.70
2022-09-22T12:20:33.396Z,1.43
2022-09-22T12:23:38.162Z,3.37
2022-09-22T12:26:11.078Z,1.50
2022-09-22T12:28:42.894Z,1.10
2022-09-22T12:31:14.256Z,1.40
2022-09-22T12:33:50.092Z,1.67
2022-09-22T12:36:20.235Z,1.20
2022-09-22T12:38:48.711Z,1.10
2022-09-22T12:41:21.358Z,1.00
2022-09-22T12:43:49.717Z,2.27
2022-09-22T12:46:27.897Z,1.60
2022-09-22T12:48:56.354Z,1.33
2022-09-22T12:51:34.819Z,3.10
2022-09-22T12:54:34.947Z,1.83
2022-09-22T12:57:29.324Z,1.27
2022-09-22T13:00:30.633Z,1.87
2022-09-22T13:03:02.573Z,1.43
2022-09-22T13:05:46.405Z,1.50
2022-09-22T13:08:23.504Z,1.40
2022-09-22T13:11:01.728Z,1.40
2022-09-22T13:13:43.927Z,1.07
2022-09-22T13:16:39.334Z,1.30
2022-09-22T13:19:11.514Z,2.07
2022-09-22T13:21:40.255Z,1.27
2022-09-22T13:24:26.591Z,1.30
2022-09-22T13:27:05.873Z,1.33
2022-09-22T13:29:36.467Z,2.27
2022-09-22T13:32:26.638Z,1.60
2022-09-22T13:34:55.264Z,2.23
2022-09-22T13:37:25.812Z,1.40
2022-09-22T13:39:55.694Z,1.60
2022-09-22T13:42:31.464Z,1.07
2022-09-22T13:45:06.438Z,1.33
2022-09-22T13:47:35.224Z,2.87
2022-09-22T13:50:06.988Z,1.43
2022-09-22T13:52:39.338Z,3.90
2022-09-22T13:55:14.073Z,1.60
2022-09-22T13:57:44.043Z,2.87
2022-09-22T14:00:26.371Z,2.27
2022-09-22T14:02:57.366Z,2.07
2022-09-22T14:05:30.327Z,1.70
2022-09-22T14:08:18.282Z,3.30
2022-09-22T14:10:48.767Z,1.43
2022-09-22T14:13:40.496Z,1.40
2022-09-22T14:16:21.583Z,1.20
2022-09-22T14:18:54.100Z,2.33
2022-09-22T14:21:23.413Z,1.87
2022-09-22T14:23:52.929Z,2.13
2022-09-22T14:26:33.357Z,1.60
2022-09-22T14:29:14.674Z,3.50
2022-09-22T14:31:48.183Z,2.47
2022-09-22T14:34:23.324Z,1.70
2022-09-22T14:36:52.928Z,2.17
2022-09-22T14:39:30.326Z,1.83
2022-09-22T14:42:08.527Z,1.33
2022-09-22T14:44:43.994Z,1.60
2022-09-22T14:47:27.319Z,1.40
2022-09-22T14:50:11.612Z,2.57
2022-09-22T14:52:43.495Z,1.60
2022-09-22T14:55:20.082Z,1.63
2022-09-22T14:57:50.840Z,1.03
2022-09-22T15:00:37.891Z,1.37
2022-09-22T15:03:18.164Z,1.40
2022-09-22T15:05:46.623Z,1.47
2022-09-22T15:08:18.798Z,0.90
2022-09-22T15:10:54.982Z,1.80
2022-09-22T15:13:38.240Z,0.90
2022-09-22T15:16:07.419Z,1.80
2022-09-22T15:18:37.447Z,1.40
2022-09-22T15:21:12.947Z,1.97
2022-09-22T15:23:45.364Z,1.10
2022-09-22T15:26:20.694Z,1.30
2022-09-22T15:28:53.575Z,1.77
2022-09-22T15:31:26.424Z,3.80
2022-09-22T15:33:57.128Z,1.60
2022-09-22T15:36:26.416Z,1.37
2022-09-22T15:39:00.975Z,2.50
2022-09-22T15:41:29.583Z,3.47
2022-09-22T15:43:58.279Z,5.10
2022-09-22T15:46:33.655Z,4.77
2022-09-22T15:49:08.710Z,13.67
2022-09-22T15:51:37.144Z,12.20
2022-09-22T15:54:14.388Z,8.07
2022-09-22T15:56:43.067Z,5.10
2022-09-22T15:59:18.353Z,5.00
2022-09-22T16:01:46.793Z,3.87
2022-09-22T16:04:17.249Z,4.40
2022-09-22T16:06:51.149Z,2.90
2022-09-22T16:09:19.830Z,3.20
2022-09-22T16:11:48.860Z,8.03
2022-09-22T16:14:17.356Z,11.07
2022-09-22T16:16:45.746Z,13.53
2022-09-22T16:19:16.141Z,7.47
2022-09-22T16:21:51.580Z,4.17
2022-09-22T16:24:22.322Z,1.80
2022-09-22T16:26:51.406Z,4.17
2022-09-22T16:29:19.840Z,2.53
2022-09-22T16:31:49.052Z,1.70
2022-09-22T16:34:18.729Z,2.23
2022-09-22T16:36:47.086Z,2.17
2022-09-22T16:39:15.373Z,2.97
2022-09-22T16:41:46.990Z,1.67
2022-09-22T16:44:15.778Z,2.27
2022-09-22T16:46:44.178Z,2.40
2022-09-22T16:49:16.319Z,2.90
2022-09-22T16:51:49.527Z,2.77
2022-09-22T16:54:19.920Z,3.23
2022-09-22T16:56:50.476Z,4.37
2022-09-22T16:59:21.435Z,3.70
2022-09-22T17:01:50.843Z,3.30
2022-09-22T17:04:20.099Z,4.07
2022-09-22T17:06:50.687Z,3.97
2022-09-22T17:09:19.535Z,5.67
2022-09-22T17:11:49.416Z,5.10
2022-09-22T17:14:21.209Z,5.90
2022-09-22T17:16:52.156Z,5.23
2022-09-22T17:19:22.700Z,8.03
2022-09-22T17:21:55.252Z,4.00
2022-09-22T17:24:24.789Z,6.07
2022-09-22T17:26:55.861Z,6.00
2022-09-22T17:29:26.560Z,7.30
2022-09-22T17:31:59.403Z,13.20
2022-09-22T17:34:29.547Z,14.23
2022-09-22T17:37:00.112Z,13.53
2022-09-22T17:39:30.320Z,12.37
2022-09-22T17:41:58.892Z,8.43
2022-09-22T17:44:28.459Z,10.20
2022-09-22T17:47:14.700Z,6.20
2022-09-22T17:50:00.220Z,8.43
2022-09-22T17:52:47.138Z,9.23
2022-09-22T17:55:25.027Z,24.67
2022-09-22T17:57:56.271Z,54.60
2022-09-22T18:00:26.200Z,46.17
2022-09-22T18:02:55.307Z,43.63
2022-09-22T18:05:26.838Z,23.67
2022-09-22T18:07:58.587Z,16.47
2022-09-22T18:10:34.238Z,12.23
2022-09-22T18:13:04.353Z,12.07
2022-09-22T18:15:32.723Z,10.40
2022-09-22T18:18:01.204Z,8.63
2022-09-22T18:20:29.789Z,7.53
2022-09-22T18:23:00.352Z,12.43
2022-09-22T18:25:29.002Z,18.50
2022-09-22T18:27:58.025Z,10.17
2022-09-22T18:30:28.732Z,9.07
2022-09-22T18:32:57.240Z,5.53
2022-09-22T18:35:27.916Z,5.90
2022-09-22T18:37:56.380Z,5.73
2022-09-22T18:40:27.847Z,8.10
2022-09-22T18:42:56.625Z,9.93
2022-09-22T18:45:25.202Z,6.87
2022-09-22T18:47:53.688Z,8.10
2022-09-22T18:50:22.010Z,7.27
2022-09-22T18:52:54.282Z,7.23
2022-09-22T18:55:22.587Z,8.03
2022-09-22T18:57:52.261Z,13.87
2022-09-22T19:00:22.160Z,9.43
2022-09-22T19:02:50.643Z,188.60
2022-09-22T19:05:19.608Z,198.30
2022-09-22T19:07:48.354Z,56.00
2022-09-22T19:10:21.780Z,24.97
2022-09-22T19:12:51.743Z,22.00
2022-09-22T19:15:20.915Z,18.93
2022-09-22T19:17:50.594Z,12.27
2022-09-22T19:20:22.529Z,11.80
2022-09-22T19:22:52.377Z,19.13
2022-09-22T19:25:21.948Z,10.27
2022-09-22T19:27:52.345Z,8.67
2022-09-22T19:30:23.340Z,6.93
2022-09-22T19:32:54.461Z,7.27
2022-09-22T19:35:23.002Z,4.10
2022-09-22T19:37:52.662Z,7.03
2022-09-22T19:40:24.762Z,7.27
2022-09-22T19:42:56.153Z,4.40
2022-09-22T19:45:26.248Z,3.93
2022-09-22T19:47:56.906Z,4.97
2022-09-22T19:50:25.741Z,5.77
2022-09-22T19:52:54.216Z,5.00
2022-09-22T19:55:22.748Z,5.37
2022-09-22T19:57:54.022Z,5.27
2022-09-22T20:00:26.747Z,5.07
2022-09-22T20:02:58.670Z,4.70
2022-09-22T20:05:30.085Z,5.50
2022-09-22T20:07:58.371Z,4.57
2022-09-22T20:10:26.741Z,4.37
2022-09-22T20:12:55.046Z,4.13
2022-09-22T20:15:25.619Z,3.67
2022-09-22T20:17:54.818Z,3.70
2022-09-22T20:20:25.819Z,3.30
2022-09-22T20:23:00.259Z,3.50
2022-09-22T20:25:31.672Z,3.33
2022-09-22T20:28:00.618Z,3.87
2022-09-22T20:30:30.386Z,3.73
2022-09-22T20:32:59.084Z,3.47
2022-09-22T20:35:27.743Z,3.07
2022-09-22T20:37:59.310Z,3.00
2022-09-22T20:40:29.119Z,2.40
2022-09-22T20:42:58.059Z,5.47
2022-09-22T20:45:27.240Z,2.67
2022-09-22T20:47:56.969Z,2.80
2022-09-22T20:50:25.464Z,2.90
2022-09-22T20:52:53.742Z,2.03
2022-09-22T20:55:22.750Z,3.77
2022-09-22T20:57:51.027Z,3.30
2022-09-22T21:00:19.483Z,4.63
2022-09-22T21:02:47.885Z,3.20
2022-09-22T21:05:18.673Z,3.60
2022-09-22T21:07:47.069Z,3.43
2022-09-22T21:10:41.279Z,3.63
2022-09-22T21:13:09.636Z,4.07
2022-09-22T21:15:38.564Z,3.70
2022-09-22T21:18:06.959Z,3.03
2022-09-22T21:20:36.535Z,2.43
2022-09-22T21:23:04.792Z,3.87
2022-09-22T21:25:33.046Z,3.40
2022-09-22T21:28:01.291Z,3.23
2022-09-22T21:30:29.549Z,5.57
2022-09-22T21:32:57.814Z,3.10
2022-09-22T21:35:26.115Z,3.77
2022-09-22T21:37:57.693Z,2.87
2022-09-22T21:40:26.057Z,4.97
2022-09-22T21:42:54.284Z,2.87
2022-09-22T21:45:22.503Z,3.17
2022-09-22T21:47:51.946Z,4.80
2022-09-22T21:50:20.257Z,3.40
2022-09-22T21:52:48.760Z,3.70
2022-09-22T21:55:18.716Z,3.20
2022-09-22T21:57:46.993Z,3.00
2022-09-22T22:00:15.792Z,3.20
2022-09-22T22:03:01.474Z,3.00
2022-09-22T22:05:30.240Z,4.47
2022-09-22T22:07:58.604Z,3.57
2022-09-22T22:10:28.278Z,3.57
2022-09-22T22:12:56.657Z,4.43
2022-09-22T22:15:24.976Z,5.37
2022-09-22T22:17:53.232Z,3.47
2022-09-22T22:20:21.483Z,5.33
2022-09-22T22:22:49.966Z,3.00
2022-09-22T22:25:19.760Z,3.77
2022-09-22T22:27:49.762Z,3.07
2022-09-22T22:30:19.048Z,3.20
2022-09-22T22:32:47.425Z,4.23
2022-09-22T22:35:15.921Z,2.77
2022-09-22T22:37:45.747Z,6.63
2022-09-22T22:40:14.100Z,3.03
2022-09-22T22:42:42.373Z,2.50
2022-09-22T22:45:12.345Z,3.00
2022-09-22T22:47:40.598Z,3.00
2022-09-22T22:50:10.854Z,3.83
2022-09-22T22:52:42.125Z,2.93
2022-09-22T22:55:10.714Z,3.43
2022-09-22T22:57:38.966Z,3.63
2022-09-22T23:00:09.026Z,4.87
2022-09-22T23:02:38.662Z,3.13
2022-09-22T23:05:08.480Z,3.53
2022-09-22T23:07:36.819Z,3.20
2022-09-22T23:10:08.642Z,2.90
2022-09-22T23:12:40.232Z,4.60
2022-09-22T23:15:10.735Z,2.83
2022-09-22T23:17:40.487Z,3.17
2022-09-22T23:20:10.126Z,5.33
2022-09-22T23:22:38.391Z,4.20
2022-09-22T23:25:07.354Z,3.30
2022-09-22T23:27:35.537Z,3.30
2022-09-22T23:30:03.836Z,2.60
2022-09-22T23:32:32.108Z,3.10
2022-09-22T23:35:01.722Z,4.23
2022-09-22T23:37:29.978Z,4.50
2022-09-22T23:39:58.171Z,3.50
2022-09-22T23:42:26.562Z,2.83
2022-09-22T23:44:54.778Z,3.20
2022-09-22T23:47:23.020Z,2.60
2022-09-22T23:49:51.305Z,4.10
2022-09-22T23:52:22.278Z,4.50
2022-09-22T23:54:50.560Z,2.80
2022-09-22T23:57:19.591Z,3.07
2022-09-22T23:59:47.848Z,2.97
